Aviation Digital Data Service (ADDS)

Output produced by METARs form (0030 UTC 21 January 2019)
found at http://www.aviationweather.gov/metar/data/
 
Forecast for: MROC (JUAN SANTAMARIA , CR)
Text: MROC 202300Z 2100/2124 10015KT 9999 FEW035 TX29/2119Z TN19/2110Z
Forecast period: 0000 UTC 21 January 2019 to 0000 UTC 22 January 2019
Forecast type: FROM: standard forecast or significant change
Winds: from the E (100 degrees) at 17 MPH (15 knots; 7.7 m/s)
Visibility: 6 or more miles 10+ km)
Ceiling: at least 12,000 feet AGL
Clouds: few clouds at 3500 feet AGL
Weather: no significant weather forecast for this period
Text: TEMPO 2100/2124 09020G30KT
Forecast period: 0000 UTC 21 January 2019 to 0000 UTC 22 January 2019
Forecast type: TEMPORARY: The following changes expected for less than half the time period
Winds: from the E (90 degrees) at 23 MPH (20 knots; 10.3 m/s)
gusting to 34 MPH (30 knots; 15.4 m/s)
Visibility: missing
Ceiling: unknown
Clouds: missing
Weather: no significant weather forecast for this period